Time;durP1;ratioP1;P1;durP2;ratioP2;P2;SDS_P1;SDS_P2;PMS_P1;PMS_P2;Temp;Humidity;BMP_temperature;BMP_pressure;BME280_temperature;BME280_humidity;BME280_pressure;Samples;Min_cycle;Max_cycle;Signal;HPM_P1;HPM_P2
2022/01/29 00:01:59;;;;;;;42.25;24.52;;;;;;;3.92;84.79;101426.66;5014165;28;20133;-63
2022/01/29 00:04:25;;;;;;;38.05;24.52;;;;;;;3.91;84.37;101427.44;5014540;28;20073;-63
2022/01/29 00:06:50;;;;;;;37.03;22.27;;;;;;;3.93;84.29;101422.41;4980575;28;20034;-63
2022/01/29 00:09:21;;;;;;;38.15;23.00;;;;;;;3.93;84.58;101417.25;5014904;28;20042;-63
2022/01/29 00:11:50;;;;;;;40.58;23.63;;;;;;;3.94;84.40;101407.13;5014416;28;20045;-63
2022/01/29 00:14:18;;;;;;;40.15;23.98;;;;;;;3.97;84.71;101396.16;5013536;28;20497;-63
2022/01/29 00:16:44;;;;;;;40.53;24.02;;;;;;;3.95;84.76;101387.47;4981089;28;20046;-63
2022/01/29 00:19:12;;;;;;;37.95;22.42;;;;;;;3.95;84.98;101380.69;4996728;28;20120;-64
2022/01/29 00:21:37;;;;;;;47.78;23.65;;;;;;;3.93;84.93;101369.44;5014119;28;20048;-63
2022/01/29 00:24:03;;;;;;;40.60;22.42;;;;;;;3.96;84.90;101369.63;5013949;28;20100;-64
2022/01/29 00:26:36;;;;;;;39.50;20.88;;;;;;;3.96;84.34;101372.19;5014070;28;20474;-63
2022/01/29 00:29:09;;;;;;;43.00;24.13;;;;;;;3.94;84.37;101363.50;5014140;28;20375;-63
2022/01/29 00:31:35;;;;;;;41.40;22.23;;;;;;;3.95;84.51;101375.56;4980131;28;20280;-63
2022/01/29 00:34:00;;;;;;;36.60;22.00;;;;;;;3.94;85.14;101375.44;4996524;28;20048;-63
2022/01/29 00:36:29;;;;;;;39.58;23.38;;;;;;;3.93;84.44;101361.72;5013917;28;20490;-63
2022/01/29 00:38:54;;;;;;;42.85;23.48;;;;;;;3.95;84.21;101364.38;4980146;28;20497;-63
2022/01/29 00:41:20;;;;;;;46.33;22.38;;;;;;;3.95;84.59;101360.16;5014252;28;20088;-63
2022/01/29 00:43:48;;;;;;;43.92;22.95;;;;;;;3.96;84.70;101355.91;5013915;28;20524;-64
2022/01/29 00:46:13;;;;;;;41.47;22.23;;;;;;;3.95;84.55;101355.03;4996182;28;20033;-63
2022/01/29 00:48:42;;;;;;;51.72;22.58;;;;;;;3.95;84.85;101359.25;5013822;28;20104;-64
2022/01/29 00:51:07;;;;;;;43.35;21.90;;;;;;;3.97;84.75;101355.13;5014270;28;20042;-63
2022/01/29 00:53:33;;;;;;;39.10;22.90;;;;;;;3.98;84.01;101351.75;5013820;28;20045;-63
2022/01/29 00:55:58;;;;;;;36.80;20.70;;;;;;;3.97;84.67;101350.84;4996849;28;20082;-63
2022/01/29 00:58:24;;;;;;;45.00;20.85;;;;;;;3.97;84.83;101350.84;5013673;28;20025;-63
2022/01/29 01:00:49;;;;;;;35.95;20.40;;;;;;;3.95;84.75;101326.81;5013848;28;20125;-63
2022/01/29 01:03:15;;;;;;;41.05;20.60;;;;;;;3.96;85.06;101331.16;5009764;28;20092;-64
2022/01/29 01:05:40;;;;;;;37.78;20.88;;;;;;;3.97;84.80;101325.19;5013462;28;20121;-63
2022/01/29 01:08:08;;;;;;;42.53;20.38;;;;;;;3.97;84.61;101314.06;5013396;28;20076;-63
2022/01/29 01:10:36;;;;;;;43.28;20.73;;;;;;;3.96;84.35;101305.50;5013471;28;20042;-64
2022/01/29 01:13:02;;;;;;;40.58;20.25;;;;;;;3.95;84.55;101306.28;5013607;28;20042;-64
2022/01/29 01:15:27;;;;;;;35.33;21.80;;;;;;;3.96;84.34;101302.94;5013611;28;20084;-64
2022/01/29 01:17:53;;;;;;;36.58;19.92;;;;;;;3.97;84.83;101304.69;5012095;28;20041;-64
2022/01/29 01:20:18;;;;;;;34.20;18.77;;;;;;;3.98;84.47;101305.59;5013582;28;20029;-63
2022/01/29 01:22:44;;;;;;;33.58;18.65;;;;;;;3.97;84.22;101299.53;5013312;28;20041;-62
2022/01/29 01:25:10;;;;;;;34.35;19.73;;;;;;;3.96;84.69;101297.81;5014804;28;20034;-63
2022/01/29 01:27:38;;;;;;;33.63;18.70;;;;;;;3.97;84.74;101299.53;5016045;28;20547;-63
2022/01/29 01:30:05;;;;;;;33.22;19.25;;;;;;;3.99;84.42;101293.63;4999976;28;20041;-64
2022/01/29 01:32:30;;;;;;;34.70;18.95;;;;;;;3.97;84.15;101289.28;4999768;28;20038;-64
2022/01/29 01:35:06;;;;;;;33.15;20.23;;;;;;;3.98;84.24;101267.09;5017489;28;20504;-63
2022/01/29 01:37:46;;;;;;;29.88;17.77;;;;;;;3.96;84.97;101269.59;5017575;28;20052;-63
2022/01/29 01:40:18;;;;;;;32.75;18.95;;;;;;;3.97;85.07;101267.88;5017331;28;20544;-64
2022/01/29 01:42:47;;;;;;;33.95;18.95;;;;;;;3.97;84.46;101268.75;5016041;28;20467;-63
2022/01/29 01:45:14;;;;;;;32.35;19.17;;;;;;;3.98;84.70;101264.53;5016094;28;20088;-63
2022/01/29 01:47:43;;;;;;;29.90;18.15;;;;;;;3.97;85.07;101273.91;5015952;28;20390;-63
2022/01/29 01:50:12;;;;;;;31.33;18.67;;;;;;;3.99;84.83;101283.38;5015862;28;20121;-63
2022/01/29 01:52:43;;;;;;;32.80;19.80;;;;;;;4.00;84.85;101297.97;5017117;28;20548;-64
2022/01/29 01:55:15;;;;;;;32.47;18.58;;;;;;;3.99;84.54;101289.41;5017066;28;20045;-64
2022/01/29 01:57:41;;;;;;;34.63;19.13;;;;;;;3.99;85.03;101284.28;4999266;28;20547;-64
2022/01/29 02:00:07;;;;;;;30.10;17.60;;;;;;;4.01;84.45;101289.47;5016652;28;20041;-64
2022/01/29 02:02:33;;;;;;;34.75;19.92;;;;;;;3.98;84.87;101274.78;5015323;28;20092;-63
2022/01/29 02:05:01;;;;;;;32.42;19.55;;;;;;;3.98;84.57;101272.22;5016917;28;20030;-63
2022/01/29 02:07:30;;;;;;;39.70;18.48;;;;;;;4.01;84.42;101266.41;5016702;28;20121;-63
2022/01/29 02:09:55;;;;;;;32.28;18.38;;;;;;;4.00;84.55;101257.81;4999059;28;20034;-63
2022/01/29 02:12:24;;;;;;;33.90;18.63;;;;;;;4.01;84.12;101245.88;5015359;28;20033;-63
2022/01/29 02:14:51;;;;;;;30.23;18.05;;;;;;;3.95;84.33;101229.34;5016587;28;20034;-64
2022/01/29 02:17:17;;;;;;;33.63;18.27;;;;;;;3.99;85.11;101238.09;4999196;28;20046;-64
2022/01/29 02:19:42;;;;;;;31.00;18.55;;;;;;;3.99;84.63;101242.31;5015455;28;20085;-63
2022/01/29 02:22:08;;;;;;;33.17;19.55;;;;;;;3.99;84.96;101230.41;5016436;28;20041;-64
2022/01/29 02:24:33;;;;;;;32.15;19.92;;;;;;;3.99;84.73;101232.97;5015167;28;20030;-63
2022/01/29 02:27:02;;;;;;;33.58;18.08;;;;;;;4.02;84.45;101228.03;5016121;28;20499;-63
2022/01/29 02:29:30;;;;;;;32.65;18.83;;;;;;;4.01;85.23;101233.94;4999192;28;20049;-63
2022/01/29 02:31:57;;;;;;;30.65;18.25;;;;;;;4.02;84.95;101232.25;4998585;28;20030;-63
2022/01/29 02:34:24;;;;;;;32.70;18.60;;;;;;;4.01;85.14;101226.25;5015218;28;20041;-63
2022/01/29 02:36:53;;;;;;;41.95;18.92;;;;;;;4.00;84.28;101211.66;5015445;28;20042;-63
2022/01/29 02:39:20;;;;;;;32.65;19.83;;;;;;;4.00;84.56;101211.66;4998655;28;20061;-63
2022/01/29 02:41:49;;;;;;;29.70;17.92;;;;;;;4.02;84.35;101206.59;4998285;28;20029;-64
2022/01/29 02:44:23;;;;;;;31.65;18.10;;;;;;;4.01;84.06;101197.13;5014900;28;20096;-64
2022/01/29 02:46:56;;;;;;;32.13;20.77;;;;;;;4.01;84.58;101192.00;5014956;28;20504;-63
2022/01/29 02:49:26;;;;;;;30.52;19.15;;;;;;;4.00;84.64;101170.59;5016046;28;20038;-63
2022/01/29 02:51:57;;;;;;;38.83;19.27;;;;;;;4.02;85.05;101174.16;4998300;28;20129;-62
2022/01/29 02:54:24;;;;;;;31.33;18.50;;;;;;;4.00;84.38;101165.47;5015855;28;20501;-63
2022/01/29 02:56:53;;;;;;;33.17;19.08;;;;;;;4.03;84.58;101169.88;5014693;28;20042;-62
2022/01/29 02:59:21;;;;;;;29.27;19.75;;;;;;;4.01;84.43;101156.09;4998590;28;20042;-63
2022/01/29 03:01:50;;;;;;;30.05;17.90;;;;;;;4.02;85.42;101160.41;5015637;28;20076;-63
2022/01/29 03:04:15;;;;;;;30.13;19.35;;;;;;;4.03;85.08;101167.31;5015778;28;20034;-63
2022/01/29 03:06:41;;;;;;;37.50;19.75;;;;;;;4.03;84.86;101159.63;5015421;28;20432;-63
2022/01/29 03:09:06;;;;;;;28.77;17.27;;;;;;;4.02;84.80;101158.75;5016028;28;20069;-63
2022/01/29 03:11:32;;;;;;;25.70;17.35;;;;;;;4.03;84.47;101162.19;4997858;28;20441;-64
2022/01/29 03:14:00;;;;;;;26.45;15.23;;;;;;;4.04;84.23;101170.00;5015447;28;20038;-63
2022/01/29 03:16:26;;;;;;;29.55;17.30;;;;;;;4.04;85.03;101170.00;5015300;28;20030;-63
2022/01/29 03:18:57;;;;;;;30.02;16.50;;;;;;;4.04;84.83;101159.75;4998374;28;20058;-64
2022/01/29 03:21:23;;;;;;;25.35;15.35;;;;;;;4.05;84.97;101152.91;5015212;28;20069;-63
2022/01/29 03:23:48;;;;;;;25.08;15.40;;;;;;;4.06;84.58;101147.00;4997841;28;20493;-63
2022/01/29 03:26:14;;;;;;;28.50;16.20;;;;;;;4.05;84.60;101146.09;5015621;28;20164;-62
2022/01/29 03:28:39;;;;;;;22.40;14.95;;;;;;;4.05;84.27;101140.97;5015411;28;20188;-63
2022/01/29 03:31:05;;;;;;;23.77;15.63;;;;;;;4.05;84.85;101140.09;5015236;28;20107;-64
2022/01/29 03:33:30;;;;;;;24.40;15.43;;;;;;;4.04;84.66;101141.78;5015093;28;20034;-62
2022/01/29 03:35:56;;;;;;;21.98;14.63;;;;;;;4.04;84.71;101136.66;5015282;28;20046;-63
2022/01/29 03:38:22;;;;;;;26.52;15.98;;;;;;;4.07;84.88;101141.06;5014961;28;20034;-63
2022/01/29 03:40:49;;;;;;;23.05;14.38;;;;;;;4.07;84.71;101138.50;5014794;28;20040;-64
2022/01/29 03:43:27;;;;;;;20.52;13.57;;;;;;;4.07;85.07;101143.63;4997418;28;20041;-63
2022/01/29 03:45:55;;;;;;;23.67;15.27;;;;;;;4.06;85.06;101140.16;4997591;28;20042;-63
2022/01/29 03:48:20;;;;;;;23.13;14.38;;;;;;;4.08;84.86;101137.72;4997146;28;20065;-63
2022/01/29 03:50:46;;;;;;;23.10;14.75;;;;;;;4.05;85.13;101123.00;5014681;28;20069;-63
2022/01/29 03:53:11;;;;;;;20.55;14.70;;;;;;;4.07;84.44;101126.53;5014742;28;20032;-63
2022/01/29 03:55:40;;;;;;;22.30;13.48;;;;;;;4.07;85.08;101123.97;4997461;28;20371;-63
2022/01/29 03:58:08;;;;;;;21.13;14.35;;;;;;;4.08;85.27;101124.88;4997405;28;20122;-63
2022/01/29 04:00:34;;;;;;;21.92;14.77;;;;;;;4.10;84.65;101121.59;4996929;28;20038;-64
2022/01/29 04:02:59;;;;;;;21.13;13.98;;;;;;;4.09;85.03;101127.53;5008343;28;20052;-65
2022/01/29 04:05:27;;;;;;;17.90;12.95;;;;;;;4.09;84.58;101116.41;5015052;28;20046;-63
2022/01/29 04:07:53;;;;;;;20.00;12.63;;;;;;;4.11;85.04;101112.25;4996852;28;20038;-63
2022/01/29 04:10:23;;;;;;;19.95;13.85;;;;;;;4.11;84.99;101107.97;5014360;28;20559;-64
2022/01/29 04:12:51;;;;;;;19.38;12.52;;;;;;;4.12;84.96;101111.44;4997008;28;20042;-64
2022/01/29 04:15:22;;;;;;;22.67;14.48;;;;;;;4.13;84.59;101115.75;4996763;28;20038;-63
2022/01/29 04:17:48;;;;;;;19.10;13.27;;;;;;;4.13;84.79;101109.75;4996667;28;20437;-63
2022/01/29 04:20:14;;;;;;;17.42;12.35;;;;;;;4.13;84.52;101109.75;5013142;28;20033;-63
2022/01/29 04:22:45;;;;;;;22.60;13.38;;;;;;;4.13;84.67;101105.50;5014131;28;20503;-64
2022/01/29 04:25:10;;;;;;;20.67;11.50;;;;;;;4.15;84.65;101108.16;4996854;28;20034;-63
2022/01/29 04:27:40;;;;;;;19.25;13.27;;;;;;;4.14;84.68;101109.84;5014032;28;20543;-63
2022/01/29 04:30:12;;;;;;;17.95;12.80;;;;;;;4.15;84.65;101109.03;5014200;28;20113;-64
2022/01/29 04:35:04;;;;;;;23.60;14.60;;;;;;;4.14;85.20;101094.44;5014085;28;20061;-63
2022/01/29 04:37:29;;;;;;;17.83;12.68;;;;;;;4.16;84.49;101100.53;5012752;28;20440;-63
2022/01/29 04:39:55;;;;;;;19.00;12.68;;;;;;;4.16;85.13;101104.81;5012995;28;20095;-63
2022/01/29 04:42:21;;;;;;;18.08;12.15;;;;;;;4.15;84.44;101093.66;5014195;28;20481;-63
2022/01/29 04:44:46;;;;;;;18.40;11.63;;;;;;;4.16;84.96;101091.97;5012503;28;20577;-63
2022/01/29 04:47:12;;;;;;;17.08;11.85;;;;;;;4.16;84.69;101092.84;5013673;28;20084;-63
2022/01/29 04:49:40;;;;;;;19.08;12.48;;;;;;;4.16;84.87;101087.72;5012636;28;20068;-64
2022/01/29 04:52:07;;;;;;;17.45;12.13;;;;;;;4.17;85.08;101088.63;5013871;28;20512;-64
2022/01/29 04:54:33;;;;;;;17.15;10.32;;;;;;;4.18;84.22;101095.53;5013033;28;20029;-63
2022/01/29 04:56:59;;;;;;;18.20;12.43;;;;;;;4.18;84.70;101093.84;5013969;28;20497;-63
2022/01/29 04:59:28;;;;;;;15.52;11.00;;;;;;;4.18;84.58;101082.69;5013243;28;20121;-63
2022/01/29 05:01:53;;;;;;;15.77;11.38;;;;;;;4.18;84.77;101082.69;5012115;28;20123;-64
2022/01/29 05:04:23;;;;;;;18.05;11.63;;;;;;;4.18;85.01;101092.97;5012359;28;20389;-65
2022/01/29 05:06:48;;;;;;;17.83;12.32;;;;;;;4.20;84.47;101092.25;5013606;28;20029;-63
2022/01/29 05:09:14;;;;;;;15.95;11.50;;;;;;;4.21;84.66;101090.53;5013761;28;20029;-63
2022/01/29 05:11:49;;;;;;;15.70;10.82;;;;;;;4.20;84.71;101094.81;5012419;28;20042;-63
2022/01/29 05:15:04;;;;;;;15.07;10.93;;;;;;;4.20;84.66;101094.81;5012525;28;20042;-63
2022/01/29 05:26:50;;;;;;;13.15;10.82;;;;;;;4.19;84.67;101090.47;5012543;28;20143;-63
2022/01/29 05:28:19;;;;;;;12.77;9.52;;;;;;;4.19;85.05;101080.22;5013187;28;20045;-64
2022/01/29 05:30:44;;;;;;;13.63;9.80;;;;;;;4.20;85.22;101075.97;4995890;28;20125;-63
2022/01/29 05:33:13;;;;;;;13.25;9.98;;;;;;;4.20;84.85;101071.72;5013348;28;20188;-65
2022/01/29 05:35:38;;;;;;;13.98;9.27;;;;;;;4.20;84.74;101076.84;4995852;28;20121;-63
2022/01/29 05:38:04;;;;;;;14.40;8.98;;;;;;;4.21;84.71;101078.63;5012631;28;20069;-63
2022/01/29 05:40:32;;;;;;;11.52;8.75;;;;;;;4.22;85.05;101067.56;5012077;28;20069;-63
2022/01/29 05:43:00;;;;;;;11.20;8.85;;;;;;;4.22;85.38;101065.00;5013348;28;20045;-63
2022/01/29 05:45:25;;;;;;;11.18;9.15;;;;;;;4.24;85.01;101063.41;5012181;28;20462;-63
2022/01/29 05:47:51;;;;;;;9.50;8.30;;;;;;;4.23;84.94;101069.34;5012021;28;20501;-63
2022/01/29 05:50:17;;;;;;;10.10;7.63;;;;;;;4.23;84.79;101061.63;5012524;28;20033;-64
2022/01/29 05:52:42;;;;;;;9.90;8.18;;;;;;;4.24;84.69;101057.38;5012132;28;20433;-63
2022/01/29 05:55:16;;;;;;;13.40;10.05;;;;;;;4.25;84.34;101062.63;5011938;28;20034;-64
2022/01/29 06:00:15;;;;;;;9.25;7.97;;;;;;;4.26;84.59;101056.69;5152236;27;20142;-63
2022/01/29 06:02:44;;;;;;;11.13;8.88;;;;;;;4.25;84.88;101048.88;5132140;28;20505;-63
2022/01/29 06:05:10;;;;;;;9.43;7.85;;;;;;;4.26;84.87;101050.66;5096876;28;20036;-63
2022/01/29 06:07:42;;;;;;;10.43;8.30;;;;;;;4.26;84.43;101050.66;5131779;28;20391;-63
2022/01/29 06:10:07;;;;;;;10.35;7.82;;;;;;;4.26;84.67;101053.22;5113420;28;20039;-64
2022/01/29 06:12:36;;;;;;;9.60;8.05;;;;;;;4.29;84.89;101049.94;5113453;28;20112;-63
2022/01/29 06:15:02;;;;;;;11.98;8.82;;;;;;;4.28;85.10;101048.19;5113501;28;20035;-63
2022/01/29 06:17:29;;;;;;;10.85;8.73;;;;;;;4.29;84.57;101050.84;5097171;28;20541;-63
2022/01/29 06:19:55;;;;;;;9.95;8.70;;;;;;;4.29;85.04;101048.25;5131486;27;20023;-63
2022/01/29 06:22:20;;;;;;;12.00;8.73;;;;;;;4.29;84.73;101052.50;5113392;28;20038;-64
2022/01/29 06:24:46;;;;;;;10.43;7.20;;;;;;;4.29;84.72;101057.63;5131568;27;20527;-63
2022/01/29 06:27:14;;;;;;;9.38;8.20;;;;;;;4.29;85.07;101055.97;5131495;28;20039;-63
2022/01/29 06:29:42;;;;;;;10.43;8.88;;;;;;;4.30;85.11;101044.00;5131321;27;20039;-63
2022/01/29 06:34:24;;;;;;;9.50;7.72;;;;;;;4.29;85.06;101045.69;5132081;27;20417;-63
2022/01/29 06:36:54;;;;;;;10.00;8.63;;;;;;;4.30;85.07;101046.56;5132196;28;20040;-63
2022/01/29 06:39:22;;;;;;;8.80;7.65;;;;;;;4.31;84.91;101053.47;5131836;28;20035;-63
2022/01/29 06:41:50;;;;;;;8.77;7.78;;;;;;;4.30;85.05;101034.63;5131779;28;20486;-63
2022/01/29 06:44:16;;;;;;;9.15;7.93;;;;;;;4.32;84.33;101042.41;5131673;28;20039;-63
2022/01/29 06:46:43;;;;;;;9.43;8.43;;;;;;;4.32;85.16;101037.28;5131709;28;20046;-63
2022/01/29 06:49:12;;;;;;;9.68;8.25;;;;;;;4.32;84.57;101051.00;5096331;28;20024;-63
2022/01/29 06:51:40;;;;;;;10.60;8.00;;;;;;;4.34;84.72;101048.53;5113459;28;20040;-63
2022/01/29 06:54:05;;;;;;;9.55;7.97;;;;;;;4.34;85.35;101043.38;5131588;28;20039;-64
2022/01/29 06:56:33;;;;;;;9.27;7.47;;;;;;;4.36;84.68;101041.81;5131798;28;20039;-63
2022/01/29 06:59:02;;;;;;;10.07;8.30;;;;;;;4.33;84.83;101034.81;5096118;28;20448;-63
2022/01/29 07:01:28;;;;;;;10.30;7.82;;;;;;;4.35;84.73;101035.78;5096095;28;20043;-62
2022/01/29 07:03:53;;;;;;;10.60;8.98;;;;;;;4.35;84.74;101033.22;5131529;28;20032;-63
2022/01/29 07:06:18;;;;;;;10.90;8.98;;;;;;;4.36;84.78;101032.41;5131252;28;20079;-63
2022/01/29 07:08:44;;;;;;;9.50;8.50;;;;;;;4.36;84.39;101031.53;5131365;28;20036;-63
2022/01/29 07:11:09;;;;;;;9.32;7.15;;;;;;;4.36;85.26;101022.13;5131175;28;20036;-63
2022/01/29 07:13:35;;;;;;;9.90;8.90;;;;;;;4.37;84.81;101017.91;5095511;28;20483;-63
2022/01/29 07:16:04;;;;;;;10.25;8.68;;;;;;;4.36;84.91;101017.00;5112892;28;20031;-64
2022/01/29 07:18:32;;;;;;;10.75;8.40;;;;;;;4.38;85.11;101022.25;5147196;27;20048;-63
2022/01/29 07:20:57;;;;;;;10.07;8.82;;;;;;;4.37;84.86;101023.91;5131240;28;20152;-65
2022/01/29 07:23:23;;;;;;;10.43;8.90;;;;;;;4.39;84.88;101011.19;5131076;28;20036;-64
2022/01/29 07:25:51;;;;;;;12.13;8.85;;;;;;;4.39;84.75;101017.19;5095901;28;20544;-64
2022/01/29 07:28:19;;;;;;;9.63;8.52;;;;;;;4.40;85.18;101033.50;5131331;28;20028;-63
2022/01/29 07:30:47;;;;;;;9.82;8.43;;;;;;;4.41;85.27;101015.59;5130883;28;20100;-63
2022/01/29 07:33:13;;;;;;;11.52;8.30;;;;;;;4.43;84.77;101023.41;5129135;28;20055;-64
2022/01/29 07:35:38;;;;;;;11.70;8.38;;;;;;;4.43;84.64;101018.25;5131055;28;20038;-63
2022/01/29 07:38:04;;;;;;;10.98;9.70;;;;;;;4.41;85.05;101005.31;5130647;28;20057;-63
2022/01/29 07:40:29;;;;;;;13.23;8.93;;;;;;;4.44;85.23;101020.00;5112148;28;20039;-63
2022/01/29 07:42:55;;;;;;;10.65;8.75;;;;;;;4.45;84.99;101019.22;5129919;28;20035;-64
2022/01/29 07:45:22;;;;;;;10.48;8.35;;;;;;;4.45;84.90;101018.34;5118917;28;20039;-64
2022/01/29 07:47:48;;;;;;;9.70;8.30;;;;;;;4.45;84.73;101008.94;5098192;28;20036;-63
2022/01/29 07:50:13;;;;;;;10.75;8.95;;;;;;;4.46;84.74;101005.56;5116804;28;20070;-63
2022/01/29 07:52:43;;;;;;;10.23;8.23;;;;;;;4.46;84.92;101008.13;5116748;28;20490;-63
2022/01/29 07:55:09;;;;;;;12.20;9.32;;;;;;;4.47;84.69;101002.22;5098452;28;20038;-63
2022/01/29 07:57:34;;;;;;;10.70;9.48;;;;;;;4.48;85.16;101003.97;5116636;28;20035;-63
2022/01/29 08:00:08;;;;;;;13.40;9.10;;;;;;;4.48;85.25;100991.16;5098691;28;20027;-64
2022/01/29 08:02:39;;;;;;;11.63;9.48;;;;;;;4.49;84.98;100995.50;5082047;28;20155;-64
2022/01/29 08:05:05;;;;;;;12.60;9.52;;;;;;;4.50;84.91;100991.25;5116716;28;20547;-64
2022/01/29 08:07:32;;;;;;;10.48;8.13;;;;;;;4.51;84.92;100995.59;5116455;28;20039;-64
2022/01/29 08:10:01;;;;;;;10.15;8.50;;;;;;;4.51;85.08;100990.47;5098984;28;20043;-64
2022/01/29 08:12:27;;;;;;;10.90;8.70;;;;;;;4.52;85.20;100992.19;5116134;28;20040;-63
2022/01/29 08:14:55;;;;;;;10.32;8.18;;;;;;;4.52;84.76;100993.09;5132171;27;20545;-63
2022/01/29 08:17:22;;;;;;;12.93;9.85;;;;;;;4.53;84.77;100981.13;5097819;28;20043;-63
2022/01/29 08:19:49;;;;;;;11.82;8.43;;;;;;;4.54;84.83;100988.94;5116341;28;20032;-64
2022/01/29 08:22:20;;;;;;;14.07;11.05;;;;;;;4.55;85.17;100990.72;5116052;28;20043;-63
2022/01/29 08:24:48;;;;;;;12.02;9.95;;;;;;;4.55;84.64;100984.66;5116953;28;20028;-63
2022/01/29 08:27:17;;;;;;;13.70;9.85;;;;;;;4.56;84.66;100976.16;5116103;28;20502;-63
2022/01/29 08:29:45;;;;;;;13.40;9.77;;;;;;;4.57;84.82;100981.41;5115956;28;20040;-64
2022/01/29 08:32:11;;;;;;;11.95;9.80;;;;;;;4.57;85.22;100988.22;5097477;28;20046;-64
2022/01/29 08:34:46;;;;;;;12.40;9.52;;;;;;;4.58;85.63;100982.28;5097825;28;20032;-64
2022/01/29 08:37:11;;;;;;;12.90;9.98;;;;;;;4.59;85.05;100988.31;5080756;28;20050;-64
2022/01/29 08:39:37;;;;;;;11.70;9.10;;;;;;;4.59;85.14;100981.47;5116250;28;20032;-63
2022/01/29 08:42:07;;;;;;;11.63;9.68;;;;;;;4.60;85.26;100992.63;5115826;28;20042;-64
2022/01/29 08:44:36;;;;;;;12.82;9.52;;;;;;;4.60;84.87;100985.81;5080621;28;20027;-63
2022/01/29 08:47:02;;;;;;;11.80;9.27;;;;;;;4.62;85.21;100991.03;5115663;28;20088;-63
2022/01/29 08:49:35;;;;;;;11.95;8.93;;;;;;;4.61;84.83;100981.56;5097577;28;20551;-64
2022/01/29 08:52:01;;;;;;;11.23;9.05;;;;;;;4.63;84.85;100975.72;5115604;28;20040;-63
2022/01/29 08:54:29;;;;;;;9.68;8.38;;;;;;;4.64;84.83;100974.03;5115341;28;20123;-64
2022/01/29 08:56:54;;;;;;;13.63;8.98;;;;;;;4.65;85.43;100980.94;5113215;27;20489;-63
2022/01/29 08:59:20;;;;;;;10.55;8.48;;;;;;;4.65;85.34;100976.69;5115456;28;20035;-63
2022/01/29 09:01:48;;;;;;;9.65;7.82;;;;;;;4.65;84.96;100979.25;5115407;28;20031;-63
2022/01/29 09:04:13;;;;;;;9.50;7.72;;;;;;;4.66;85.16;100981.03;5115297;28;20036;-63
2022/01/29 09:06:44;;;;;;;17.23;7.95;;;;;;;4.66;85.38;100981.03;5115342;28;20037;-63
2022/01/29 09:09:10;;;;;;;9.60;7.78;;;;;;;4.66;85.25;100973.31;5096933;28;20467;-64
2022/01/29 09:11:40;;;;;;;9.65;7.30;;;;;;;4.68;84.58;100973.41;5097323;28;20048;-64
2022/01/29 09:14:06;;;;;;;8.05;6.82;;;;;;;4.67;85.22;100971.63;5115124;28;20035;-64
2022/01/29 09:16:34;;;;;;;7.60;6.80;;;;;;;4.68;85.44;100975.97;5114923;28;20073;-64
2022/01/29 09:19:02;;;;;;;7.93;7.03;;;;;;;4.67;85.30;100959.66;5096719;28;20452;-64
2022/01/29 09:21:31;;;;;;;8.15;5.95;;;;;;;4.69;85.19;100952.94;5114992;28;20062;-64
2022/01/29 09:23:58;;;;;;;6.85;6.15;;;;;;;4.70;84.99;100958.97;5096605;28;20376;-64
2022/01/29 09:26:24;;;;;;;7.25;6.50;;;;;;;4.70;85.02;100957.25;5115274;28;20501;-64
2022/01/29 09:28:52;;;;;;;6.32;5.53;;;;;;;4.71;85.86;100945.31;5114864;28;20062;-64
2022/01/29 09:31:18;;;;;;;8.30;5.57;;;;;;;4.72;85.13;100957.38;5079681;28;20036;-63
2022/01/29 09:33:43;;;;;;;8.38;5.40;;;;;;;4.73;85.61;100954.00;5114480;28;20039;-63
2022/01/29 09:36:11;;;;;;;8.38;5.53;;;;;;;4.73;84.87;100954.00;5096436;28;20032;-63
2022/01/29 09:38:37;;;;;;;7.38;5.35;;;;;;;4.76;84.98;100953.28;5114877;28;20047;-63
2022/01/29 09:41:08;;;;;;;6.72;4.95;;;;;;;4.75;84.82;100949.81;5096368;28;20028;-64
2022/01/29 09:43:36;;;;;;;6.93;6.22;;;;;;;4.76;84.94;100954.13;5114705;28;20051;-64
2022/01/29 09:46:05;;;;;;;6.10;5.22;;;;;;;4.78;85.00;100954.25;5096680;28;20031;-64
2022/01/29 09:48:34;;;;;;;6.22;5.10;;;;;;;4.77;85.11;100950.78;5114545;28;20059;-63
2022/01/29 09:50:59;;;;;;;7.15;4.85;;;;;;;4.78;85.17;100951.66;5079328;28;20027;-64
2022/01/29 09:53:27;;;;;;;5.05;4.35;;;;;;;4.79;85.32;100956.88;5113122;28;20040;-63
2022/01/29 09:55:55;;;;;;;6.30;5.60;;;;;;;4.80;85.32;100950.94;5079310;28;20062;-63
2022/01/29 09:58:21;;;;;;;5.32;4.70;;;;;;;4.80;84.84;100953.50;5114414;28;20027;-64
2022/01/29 10:00:46;;;;;;;4.55;4.10;;;;;;;4.82;85.14;100962.19;5114245;28;20031;-64
2022/01/29 10:03:13;;;;;;;5.50;4.47;;;;;;;4.83;85.52;100952.78;5096068;28;20088;-64
2022/01/29 10:05:57;;;;;;;4.95;4.53;;;;;;;4.84;85.24;100950.31;5079202;28;20027;-64
2022/01/29 10:08:26;;;;;;;5.25;4.15;;;;;;;4.85;85.12;100953.75;5079489;28;20072;-63
2022/01/29 10:10:58;;;;;;;5.00;4.50;;;;;;;4.84;85.47;100959.69;5079018;28;20028;-63
2022/01/29 10:13:24;;;;;;;4.95;4.50;;;;;;;4.84;85.35;100964.81;5096242;28;20478;-63
2022/01/29 10:16:02;;;;;;;4.45;4.00;;;;;;;4.84;84.94;100973.44;5114596;28;20035;-63
2022/01/29 10:18:31;;;;;;;4.35;3.90;;;;;;;4.86;85.12;100965.78;5079327;28;20035;-64
2022/01/29 10:21:10;;;;;;;4.70;4.30;;;;;;;4.86;85.11;100964.13;5096114;28;20116;-63
2022/01/29 10:23:42;;;;;;;4.80;4.28;;;;;;;4.87;85.32;100958.19;5113957;28;20042;-63
2022/01/29 10:26:10;;;;;;;4.93;3.97;;;;;;;4.89;85.40;100950.56;5079652;28;20043;-64
2022/01/29 10:28:37;;;;;;;4.75;4.35;;;;;;;4.90;85.34;100946.31;5078987;28;20050;-64
2022/01/29 10:31:08;;;;;;;5.18;4.68;;;;;;;4.91;85.27;100951.53;5079256;28;20023;-63
2022/01/29 10:33:44;;;;;;;4.75;4.28;;;;;;;4.90;85.56;100954.03;5095462;28;20093;-63
2022/01/29 10:36:21;;;;;;;4.70;4.22;;;;;;;4.91;85.29;100951.53;5095645;28;20152;-64
2022/01/29 10:38:55;;;;;;;5.15;4.63;;;;;;;4.91;85.27;100953.19;5096008;28;20042;-64
2022/01/29 10:41:30;;;;;;;5.28;4.78;;;;;;;4.91;85.39;100953.19;5096226;28;20031;-63
2022/01/29 10:44:19;;;;;;;5.25;4.75;;;;;;;4.91;85.04;100955.75;5113795;28;20044;-63
2022/01/29 10:46:50;;;;;;;5.03;4.32;;;;;;;4.92;85.09;100963.56;5113767;28;20063;-64
2022/01/29 10:49:39;;;;;;;4.65;4.25;;;;;;;4.92;84.66;100968.72;5114259;28;20093;-64
2022/01/29 10:52:06;;;;;;;5.05;4.65;;;;;;;4.92;85.51;100961.00;5095486;28;20372;-64
2022/01/29 10:54:37;;;;;;;8.82;4.75;;;;;;;4.93;85.24;100961.88;5078683;28;20036;-63
2022/01/29 10:57:06;;;;;;;4.32;3.92;;;;;;;4.94;85.03;100950.78;5078618;28;20046;-64
2022/01/29 10:59:36;;;;;;;4.85;4.38;;;;;;;4.95;85.66;100944.84;5113666;28;20118;-63
2022/01/29 11:02:07;;;;;;;4.32;3.92;;;;;;;4.98;85.79;100934.75;5078885;28;20059;-63
2022/01/29 11:04:35;;;;;;;5.53;4.90;;;;;;;4.99;85.42;100933.94;5078572;28;20053;-64
2022/01/29 11:07:05;;;;;;;4.60;4.20;;;;;;;4.99;85.59;100928.81;5113524;28;20039;-64
2022/01/29 11:09:31;;;;;;;4.60;4.20;;;;;;;5.01;85.22;100935.78;5078432;28;20061;-64
2022/01/29 11:12:00;;;;;;;4.97;4.57;;;;;;;5.03;85.22;100923.03;5078465;28;20517;-64
2022/01/29 11:14:28;;;;;;;4.38;3.97;;;;;;;5.04;85.18;100919.66;5079001;28;20032;-63
2022/01/29 11:16:58;;;;;;;5.50;5.00;;;;;;;5.05;85.61;100917.97;5078448;28;20032;-64
2022/01/29 11:19:27;;;;;;;6.65;4.78;;;;;;;5.05;85.41;100912.81;5079477;28;20039;-64
2022/01/29 11:21:57;;;;;;;4.38;3.97;;;;;;;5.07;85.45;100899.25;5082328;28;20045;-64
2022/01/29 11:24:27;;;;;;;4.18;3.88;;;;;;;5.07;85.55;100893.25;5117362;28;20042;-64
2022/01/29 11:26:53;;;;;;;4.78;4.38;;;;;;;5.09;85.25;100895.06;5099608;28;20038;-64
2022/01/29 11:29:25;;;;;;;4.43;4.03;;;;;;;5.09;85.37;100889.06;5117387;28;20032;-64
2022/01/29 11:32:22;;;;;;;4.65;4.15;;;;;;;5.09;85.94;100886.50;5117223;28;20039;-64
2022/01/29 11:35:18;;;;;;;4.40;4.00;;;;;;;5.08;85.27;100884.72;5117064;28;20119;-64
2022/01/29 11:37:49;;;;;;;3.90;3.60;;;;;;;5.09;85.75;100883.94;5094844;28;20046;-63
2022/01/29 11:40:36;;;;;;;4.22;3.80;;;;;;;5.08;85.83;100883.03;5099018;28;20432;-63
2022/01/29 11:43:04;;;;;;;5.28;4.05;;;;;;;5.08;85.54;100875.31;5081733;28;20505;-63
2022/01/29 11:45:44;;;;;;;3.70;3.35;;;;;;;5.09;85.10;100879.66;5098278;28;20119;-63